Time;durP1;ratioP1;P1;durP2;ratioP2;P2;SDS_P1;SDS_P2;PMS_P1;PMS_P2;Temp;Humidity;BMP_temperature;BMP_pressure;BME280_temperature;BME280_humidity;BME280_pressure;Samples;Min_cycle;Max_cycle;Signal;HPM_P1;HPM_P2
2020/12/22 00:00:49;;;;;;;1.75;0.10;;;;;;;7.49;100.00;98477.38;4879039;29;20097;-80
2020/12/22 00:03:52;;;;;;;0.20;0.20;;;;;;;7.48;100.00;98473.09;4878758;29;20052;-80
2020/12/22 00:06:56;;;;;;;2.58;0.10;;;;;;;7.47;100.00;98471.56;4878822;29;20571;-79
2020/12/22 00:09:59;;;;;;;0.73;0.30;;;;;;;7.46;100.00;98486.69;4879240;29;20052;-80
2020/12/22 00:13:02;;;;;;;0.10;0.10;;;;;;;7.44;100.00;98489.19;4879188;29;20072;-78
2020/12/22 00:16:05;;;;;;;0.73;0.10;;;;;;;7.44;100.00;98500.25;4879047;29;20059;-77
2020/12/22 00:19:08;;;;;;;0.65;0.65;;;;;;;7.41;100.00;98501.22;4878235;29;20101;-78
2020/12/22 00:22:12;;;;;;;1.88;0.10;;;;;;;7.38;100.00;98507.75;4878950;29;20406;-77
2020/12/22 00:25:15;;;;;;;1.63;0.25;;;;;;;7.35;100.00;98522.56;4878813;29;20128;-76
2020/12/22 00:28:18;;;;;;;0.25;0.03;;;;;;;7.31;100.00;98519.25;4878383;29;20521;-81
2020/12/22 00:31:20;;;;;;;1.98;0.03;;;;;;;7.29;100.00;98537.59;4878596;29;20132;-83
2020/12/22 00:34:24;;;;;;;0.65;0.20;;;;;;;7.25;100.00;98543.34;4870821;29;20133;-80
2020/12/22 00:37:26;;;;;;;0.35;0.15;;;;;;;7.23;100.00;98545.84;4867284;29;20068;-79
2020/12/22 00:40:29;;;;;;;0.10;0.10;;;;;;;7.21;100.00;98542.75;4878510;29;20044;-78
2020/12/22 00:43:32;;;;;;;1.42;0.10;;;;;;;7.19;100.00;98539.72;4878248;29;20109;-78
2020/12/22 00:46:35;;;;;;;0.15;0.10;;;;;;;7.15;100.00;98532.88;4878613;29;20525;-78
2020/12/22 00:49:38;;;;;;;0.60;0.35;;;;;;;7.12;100.00;98551.22;4878636;29;20045;-79
2020/12/22 00:52:40;;;;;;;0.05;0.00;;;;;;;7.08;100.00;98558.94;4878463;29;20047;-77
2020/12/22 00:55:44;;;;;;;0.68;0.38;;;;;;;7.03;100.00;98565.19;4878315;29;20545;-78
2020/12/22 00:58:48;;;;;;;0.90;0.30;;;;;;;6.99;100.00;98564.63;4871226;29;20105;-78
2020/12/22 01:01:50;;;;;;;0.75;0.20;;;;;;;6.95;100.00;98580.69;4860041;29;20060;-78
2020/12/22 01:04:54;;;;;;;0.13;0.10;;;;;;;6.89;100.00;98591.66;4859947;29;20132;-78
2020/12/22 01:07:57;;;;;;;5.00;0.20;;;;;;;6.84;100.00;98594.38;4860112;29;20564;-79
2020/12/22 01:11:00;;;;;;;0.68;0.68;;;;;;;6.84;100.00;98608.19;4859938;29;20080;-78
2020/12/22 01:14:04;;;;;;;0.77;0.32;;;;;;;6.81;100.00;98609.16;4859917;29;20061;-78
2020/12/22 01:17:07;;;;;;;2.17;0.10;;;;;;;6.77;100.00;98625.97;4862423;29;20068;-78
2020/12/22 01:20:10;;;;;;;1.42;0.20;;;;;;;6.76;100.00;98640.25;4863210;29;20053;-80
2020/12/22 01:23:13;;;;;;;3.80;0.45;;;;;;;6.74;100.00;98651.03;4852020;29;20051;-78
2020/12/22 01:26:24;;;;;;;1.13;0.20;;;;;;;6.72;100.00;98656.28;4863429;29;20057;-78
2020/12/22 01:29:27;;;;;;;0.73;0.25;;;;;;;6.68;100.00;98666.78;4863490;29;20044;-79
2020/12/22 01:32:30;;;;;;;1.85;0.55;;;;;;;6.66;100.00;98683.09;4863155;29;20056;-79
2020/12/22 01:35:32;;;;;;;0.32;0.17;;;;;;;6.62;100.00;98679.78;4863386;29;20148;-79
2020/12/22 01:38:35;;;;;;;6.43;1.23;;;;;;;6.58;100.00;98687.50;4862989;29;20521;-79
2020/12/22 01:41:38;;;;;;;1.98;0.28;;;;;;;6.55;100.00;98693.97;4862640;29;20048;-78
2020/12/22 01:44:41;;;;;;;11.43;0.93;;;;;;;6.52;100.00;98700.47;4862876;29;20105;-79
2020/12/22 01:47:47;;;;;;;2.35;1.08;;;;;;;6.53;100.00;98701.97;4862989;29;20060;-78
2020/12/22 01:50:50;;;;;;;7.18;0.45;;;;;;;6.52;100.00;98720.56;4862475;29;20076;-78
2020/12/22 01:53:54;;;;;;;4.10;0.30;;;;;;;6.53;100.00;98726.88;4862746;29;20060;-79
2020/12/22 01:56:58;;;;;;;5.85;0.73;;;;;;;6.53;100.00;98729.63;4862628;29;20101;-79
2020/12/22 02:00:04;;;;;;;0.30;0.30;;;;;;;6.51;100.00;98746.72;4862766;29;20052;-78
2020/12/22 02:03:07;;;;;;;0.90;0.35;;;;;;;6.52;100.00;98741.97;4862621;29;20126;-78
2020/12/22 02:06:10;;;;;;;9.60;0.60;;;;;;;6.50;100.00;98749.94;4862071;29;20109;-79
2020/12/22 02:09:14;;;;;;;5.60;0.60;;;;;;;6.48;100.00;98752.41;4862480;29;20113;-79
2020/12/22 02:12:17;;;;;;;3.33;1.00;;;;;;;6.45;100.00;98758.91;4849601;29;20116;-78
2020/12/22 02:15:20;;;;;;;2.70;1.05;;;;;;;6.45;100.00;98770.75;4862396;29;20104;-79
2020/12/22 02:18:24;;;;;;;6.30;0.45;;;;;;;6.43;100.00;98789.78;4862597;29;20053;-79
2020/12/22 02:21:27;;;;;;;2.47;0.35;;;;;;;6.38;100.00;98782.16;4862262;29;20513;-79
2020/12/22 02:24:34;;;;;;;1.67;0.40;;;;;;;6.40;100.00;98787.22;4862058;29;20566;-80
2020/12/22 02:27:36;;;;;;;3.88;1.00;;;;;;;6.39;100.00;98791.22;4861064;29;20527;-78
2020/12/22 02:30:40;;;;;;;7.35;0.93;;;;;;;6.37;100.00;98791.69;4861940;29;20052;-78
2020/12/22 02:33:44;;;;;;;0.65;0.32;;;;;;;6.37;100.00;98807.50;4871821;29;20458;-79
2020/12/22 02:36:47;;;;;;;3.85;1.30;;;;;;;6.35;100.00;98821.03;4880338;29;20105;-79
2020/12/22 02:39:50;;;;;;;4.47;0.68;;;;;;;6.30;100.00;98821.72;4868365;29;20178;-78
2020/12/22 02:42:56;;;;;;;0.55;0.20;;;;;;;6.25;100.00;98825.09;4880469;29;20105;-79
2020/12/22 02:46:00;;;;;;;2.10;0.50;;;;;;;6.20;100.00;98836.81;4869343;29;20052;-79
2020/12/22 02:49:04;;;;;;;0.35;0.30;;;;;;;6.08;100.00;98853.19;4879950;29;20105;-79
2020/12/22 02:52:07;;;;;;;0.10;0.05;;;;;;;5.96;100.00;98854.16;4880153;29;20135;-79
2020/12/22 02:55:10;;;;;;;0.52;0.20;;;;;;;5.83;100.00;98861.09;4880456;29;20048;-78
2020/12/22 02:58:14;;;;;;;0.20;0.15;;;;;;;5.79;100.00;98872.31;4880144;29;20537;-79
2020/12/22 03:01:19;;;;;;;0.93;0.20;;;;;;;5.77;100.00;98883.06;4880052;29;20093;-78
2020/12/22 03:04:22;;;;;;;0.73;0.20;;;;;;;5.74;100.00;98889.50;4880319;29;20122;-78
2020/12/22 03:07:25;;;;;;;0.10;0.10;;;;;;;5.70;100.00;98904.72;4879931;29;20044;-79
2020/12/22 03:10:27;;;;;;;1.58;0.60;;;;;;;5.61;100.00;98919.31;4879846;29;20098;-78
2020/12/22 03:13:30;;;;;;;0.13;0.03;;;;;;;5.54;100.00;98919.66;4879379;29;20044;-78
2020/12/22 03:16:33;;;;;;;0.43;0.20;;;;;;;5.53;100.00;98936.69;4868249;29;20128;-79
2020/12/22 03:19:37;;;;;;;0.20;0.15;;;;;;;5.46;100.00;98948.81;4879316;29;20113;-78
2020/12/22 03:22:43;;;;;;;0.40;0.10;;;;;;;5.36;100.00;98959.13;4879681;29;20044;-79
2020/12/22 03:25:46;;;;;;;0.00;0.00;;;;;;;5.20;100.00;98961.41;4879586;29;20973;-79
2020/12/22 03:28:49;;;;;;;0.38;0.15;;;;;;;5.04;100.00;98964.50;4879587;29;20128;-79
2020/12/22 03:31:51;;;;;;;0.25;0.25;;;;;;;4.86;100.00;98983.78;4879543;29;20047;-79
2020/12/22 03:34:54;;;;;;;0.10;0.00;;;;;;;4.68;100.00;98987.28;4861167;29;20530;-79
2020/12/22 03:37:58;;;;;;;0.10;0.10;;;;;;;4.52;100.00;98995.84;4860760;29;20067;-79
2020/12/22 03:41:01;;;;;;;0.13;0.13;;;;;;;4.39;100.00;98997.94;4860320;29;20044;-79
2020/12/22 03:44:03;;;;;;;0.10;0.05;;;;;;;4.22;100.00;99000.16;4859876;29;20109;-80
2020/12/22 03:47:06;;;;;;;0.10;0.00;;;;;;;4.10;100.00;99003.00;4860851;29;20088;-79
2020/12/22 03:50:10;;;;;;;0.25;0.15;;;;;;;3.98;100.00;99012.94;4860344;29;20543;-80
2020/12/22 03:53:13;;;;;;;0.43;0.30;;;;;;;3.89;100.00;99015.63;4848793;29;20075;-79
2020/12/22 03:56:16;;;;;;;0.10;0.10;;;;;;;3.85;100.00;99023.25;4860387;29;20110;-79
2020/12/22 03:59:19;;;;;;;0.10;0.10;;;;;;;3.77;100.00;99027.47;4860514;29;20132;-79
2020/12/22 04:02:22;;;;;;;0.90;0.15;;;;;;;3.73;100.00;99035.88;4860498;29;20101;-79
2020/12/22 04:05:24;;;;;;;0.10;0.10;;;;;;;3.66;100.00;99035.38;4860437;29;20041;-80
2020/12/22 04:08:27;;;;;;;0.10;0.10;;;;;;;3.62;100.00;99048.47;4860481;29;20041;-79
2020/12/22 04:11:30;;;;;;;0.10;0.10;;;;;;;3.57;100.00;99054.56;4860392;29;20076;-79
2020/12/22 04:14:33;;;;;;;0.10;0.10;;;;;;;3.59;100.00;99057.66;4860445;29;20048;-79
2020/12/22 04:17:40;;;;;;;0.10;0.10;;;;;;;3.55;100.00;99048.75;4860330;29;20261;-79
2020/12/22 04:20:43;;;;;;;0.90;0.57;;;;;;;3.50;100.00;99055.59;4860367;29;20414;-79
2020/12/22 04:23:46;;;;;;;0.43;0.43;;;;;;;3.45;100.00;99060.88;4860366;29;20517;-80
2020/12/22 04:26:49;;;;;;;0.10;0.00;;;;;;;3.48;100.00;99054.50;4860057;29;20049;-80
2020/12/22 04:29:52;;;;;;;0.20;0.20;;;;;;;3.54;100.00;99056.25;4860472;29;20047;-79
2020/12/22 04:32:55;;;;;;;2.42;0.17;;;;;;;3.53;100.00;99054.69;4864030;29;20048;-79
2020/12/22 04:35:57;;;;;;;0.10;0.08;;;;;;;3.49;100.00;99058.78;4878580;29;20105;-79
2020/12/22 04:39:00;;;;;;;0.20;0.20;;;;;;;3.47;100.00;99061.22;4878654;29;20100;-79
2020/12/22 04:42:03;;;;;;;0.20;0.20;;;;;;;3.44;100.00;99056.63;4878546;29;20107;-79
2020/12/22 04:45:06;;;;;;;3.00;0.52;;;;;;;3.40;100.00;99084.25;4866857;29;20064;-79
2020/12/22 04:48:12;;;;;;;1.70;0.50;;;;;;;3.30;100.00;99085.38;4878212;29;20111;-79
2020/12/22 04:51:15;;;;;;;0.10;0.10;;;;;;;3.20;100.00;99085.75;4879939;29;20052;-79
2020/12/22 04:54:19;;;;;;;1.42;0.15;;;;;;;3.15;100.00;99105.56;4882276;29;20136;-79
2020/12/22 04:57:30;;;;;;;0.15;0.15;;;;;;;3.03;100.00;99118.16;4881986;29;20148;-79
2020/12/22 05:00:33;;;;;;;0.30;0.25;;;;;;;2.93;100.00;99116.50;4882473;29;20506;-79
2020/12/22 05:03:36;;;;;;;0.32;0.10;;;;;;;2.86;100.00;99113.97;4882346;29;20199;-79
2020/12/22 05:06:39;;;;;;;0.10;0.10;;;;;;;2.79;100.00;99122.44;4882305;29;20505;-79
2020/12/22 05:09:43;;;;;;;0.20;0.20;;;;;;;2.72;100.00;99117.94;4882156;29;20063;-79
2020/12/22 05:12:46;;;;;;;0.10;0.10;;;;;;;2.70;100.00;99136.09;4882035;29;20114;-79
2020/12/22 05:15:51;;;;;;;0.10;0.10;;;;;;;2.61;100.00;99135.97;4882144;29;20101;-79
2020/12/22 05:18:55;;;;;;;0.10;0.10;;;;;;;2.48;100.00;99146.97;4881852;29;20177;-79
2020/12/22 05:21:59;;;;;;;0.10;0.10;;;;;;;2.37;100.00;99141.00;4881785;29;20622;-79
2020/12/22 05:25:03;;;;;;;0.10;0.10;;;;;;;2.29;100.00;99153.41;4881741;29;20053;-79
2020/12/22 05:28:07;;;;;;;0.10;0.10;;;;;;;2.25;100.00;99144.50;4881730;29;20467;-79
2020/12/22 05:31:14;;;;;;;0.40;0.40;;;;;;;2.20;100.00;99142.28;4881472;29;20108;-79
2020/12/22 05:34:19;;;;;;;1.45;0.50;;;;;;;2.15;100.00;99151.84;4881689;29;20052;-79
2020/12/22 05:37:25;;;;;;;0.38;0.38;;;;;;;2.12;100.00;99162.94;4881795;29;20129;-79
2020/12/22 05:40:28;;;;;;;0.30;0.30;;;;;;;1.98;100.00;99186.06;4881568;29;20040;-80
2020/12/22 05:43:42;;;;;;;0.20;0.20;;;;;;;1.92;100.00;99203.50;4881263;29;20052;-80
2020/12/22 05:46:45;;;;;;;0.10;0.10;;;;;;;1.88;100.00;99208.31;4881223;29;20104;-80
2020/12/22 05:49:56;;;;;;;0.10;0.10;;;;;;;1.82;100.00;99221.03;4881054;29;20047;-80
2020/12/22 05:52:59;;;;;;;0.30;0.20;;;;;;;1.77;100.00;99224.28;4881090;29;20517;-80
2020/12/22 05:56:18;;;;;;;0.20;0.20;;;;;;;1.69;100.00;99239.41;4881078;29;20487;-79
2020/12/22 05:59:21;;;;;;;0.10;0.10;;;;;;;1.64;100.00;99248.16;4880814;29;20063;-80
2020/12/22 06:02:29;;;;;;;0.20;0.20;;;;;;;1.56;100.00;99246.78;4879021;29;20100;-79
2020/12/22 06:05:36;;;;;;;1.48;0.20;;;;;;;1.57;100.00;99260.06;4881115;29;20071;-80
2020/12/22 06:08:38;;;;;;;0.10;0.10;;;;;;;1.59;100.00;99270.59;4881140;29;20089;-78
2020/12/22 06:11:41;;;;;;;0.20;0.20;;;;;;;1.60;100.00;99269.41;4880879;29;20068;-79
2020/12/22 06:14:47;;;;;;;0.47;0.47;;;;;;;1.57;100.00;99275.75;4881460;29;20521;-79
2020/12/22 06:17:50;;;;;;;0.20;0.20;;;;;;;1.59;100.00;99273.34;4881002;29;20101;-79
2020/12/22 06:20:52;;;;;;;0.20;0.20;;;;;;;1.59;100.00;99284.31;4880787;29;20096;-79
2020/12/22 06:23:56;;;;;;;0.10;0.10;;;;;;;1.56;100.00;99277.72;4881136;29;20463;-79
2020/12/22 06:27:01;;;;;;;0.30;0.30;;;;;;;1.61;100.00;99288.19;4880433;29;20052;-80
2020/12/22 06:30:04;;;;;;;0.10;0.10;;;;;;;1.64;100.00;99303.03;4880705;29;20052;-79
2020/12/22 06:33:21;;;;;;;0.10;0.10;;;;;;;1.67;100.00;99291.22;4880528;29;20461;-80
2020/12/22 06:36:24;;;;;;;0.10;0.10;;;;;;;1.65;100.00;99294.34;4869047;29;20044;-80
2020/12/22 06:39:44;;;;;;;0.20;0.20;;;;;;;1.66;100.00;99290.44;4869199;29;20154;-80
2020/12/22 06:42:47;;;;;;;0.73;0.65;;;;;;;1.61;100.00;99299.16;4868883;29;20403;-79
2020/12/22 06:45:51;;;;;;;0.10;0.10;;;;;;;1.59;100.00;99306.28;4880466;29;20053;-80
2020/12/22 06:48:54;;;;;;;0.88;0.50;;;;;;;1.61;100.00;99309.34;4880508;29;20055;-80
2020/12/22 06:51:56;;;;;;;0.38;0.10;;;;;;;1.59;100.00;99300.78;4880269;29;20048;-79
2020/12/22 06:55:01;;;;;;;0.65;0.65;;;;;;;1.53;100.00;99312.28;4880455;29;20043;-80
2020/12/22 06:58:04;;;;;;;0.30;0.30;;;;;;;1.50;100.00;99326.84;4879992;29;20606;-80
2020/12/22 07:01:25;;;;;;;0.30;0.20;;;;;;;1.42;100.00;99316.47;4879556;29;20157;-80
2020/12/22 07:04:38;;;;;;;6.00;0.88;;;;;;;1.32;100.00;99321.00;4880177;29;20132;-80
2020/12/22 07:07:58;;;;;;;8.77;1.10;;;;;;;1.28;100.00;99325.78;4879981;29;20052;-80
2020/12/22 07:11:17;;;;;;;0.45;0.45;;;;;;;1.24;100.00;99338.81;4879807;29;20519;-80
2020/12/22 07:14:23;;;;;;;3.20;0.98;;;;;;;1.20;100.00;99351.06;4879380;29;20124;-80
2020/12/22 07:17:28;;;;;;;11.38;2.00;;;;;;;1.12;100.00;99350.44;4868297;29;20053;-80
2020/12/22 07:20:33;;;;;;;0.20;0.20;;;;;;;1.06;100.00;99346.63;4879968;29;20052;-80
2020/12/22 07:23:36;;;;;;;1.02;0.55;;;;;;;1.02;100.00;99351.41;4879873;29;20135;-81
2020/12/22 07:26:40;;;;;;;0.55;0.55;;;;;;;0.96;100.00;99349.59;4879635;29;20052;-80
2020/12/22 07:29:43;;;;;;;2.72;0.30;;;;;;;0.88;100.00;99345.47;4879875;29;20517;-80
2020/12/22 07:32:47;;;;;;;0.30;0.30;;;;;;;0.81;100.00;99335.41;4879585;29;20048;-81
2020/12/22 07:35:49;;;;;;;5.90;1.15;;;;;;;0.75;100.00;99342.59;4879485;29;20410;-81
2020/12/22 07:38:52;;;;;;;0.70;0.70;;;;;;;0.71;100.00;99355.59;4879731;29;20192;-81
2020/12/22 07:41:55;;;;;;;0.20;0.20;;;;;;;0.68;100.00;99356.44;4879459;29;20047;-80
2020/12/22 07:45:06;;;;;;;0.82;0.70;;;;;;;0.63;100.00;99351.44;4879635;29;20052;-81
2020/12/22 07:48:09;;;;;;;0.30;0.30;;;;;;;0.58;100.00;99369.16;4878638;29;20052;-81
2020/12/22 07:51:18;;;;;;;0.17;0.17;;;;;;;0.53;100.00;99366.88;4879341;29;20052;-81
2020/12/22 07:54:21;;;;;;;0.20;0.20;;;;;;;0.49;100.00;99368.16;4879173;29;20096;-80
2020/12/22 07:57:25;;;;;;;0.10;0.10;;;;;;;0.43;100.00;99380.78;4879026;29;20096;-82
2020/12/22 08:00:29;;;;;;;0.20;0.20;;;;;;;0.36;100.00;99387.16;4878280;29;20177;-81
2020/12/22 08:03:32;;;;;;;0.70;0.70;;;;;;;0.32;100.00;99391.16;4879146;29;20043;-80
2020/12/22 08:06:35;;;;;;;0.17;0.17;;;;;;;0.26;100.00;99403.78;4879085;29;20093;-81
2020/12/22 08:09:39;;;;;;;0.63;0.52;;;;;;;0.21;100.00;99398.78;4877825;29;20051;-81
2020/12/22 08:12:42;;;;;;;0.30;0.30;;;;;;;0.15;100.00;99414.13;4878493;29;20100;-81
2020/12/22 08:15:45;;;;;;;0.50;0.50;;;;;;;0.10;100.00;99417.34;4878860;29;20048;-81
2020/12/22 08:18:50;;;;;;;0.40;0.40;;;;;;;0.06;100.00;99422.09;4878845;29;20148;-82
2020/12/22 08:21:55;;;;;;;0.20;0.20;;;;;;;0.05;100.00;99426.00;4879087;29;20091;-82
2020/12/22 08:25:00;;;;;;;0.20;0.20;;;;;;;0.01;100.00;99431.53;4878541;29;20100;-82
2020/12/22 08:28:03;;;;;;;0.10;0.10;;;;;;;-0.02;100.00;99427.66;4878680;29;20577;-81
2020/12/22 08:31:10;;;;;;;0.30;0.30;;;;;;;-0.03;100.00;99426.13;4877906;29;20108;-81
2020/12/22 08:34:17;;;;;;;0.10;0.10;;;;;;;-0.04;100.00;99434.75;4878657;29;20040;-77
2020/12/22 08:37:25;;;;;;;0.63;0.63;;;;;;;-0.07;100.00;99436.38;4878610;29;20092;-84
2020/12/22 08:40:29;;;;;;;1.20;1.10;;;;;;;-0.09;100.00;99449.66;4878949;29;20056;-84
2020/12/22 08:43:33;;;;;;;0.40;0.40;;;;;;;-0.11;100.00;99448.56;4867336;29;20052;-82
2020/12/22 08:46:38;;;;;;;0.13;0.13;;;;;;;-0.14;100.00;99441.94;4878779;29;20137;-83
2020/12/22 08:49:41;;;;;;;0.20;0.20;;;;;;;-0.17;100.00;99450.19;4878671;29;20056;-83
2020/12/22 08:52:44;;;;;;;0.15;0.15;;;;;;;-0.19;100.00;99461.56;4878349;29;20052;-80
2020/12/22 08:55:48;;;;;;;0.10;0.10;;;;;;;-0.21;100.00;99461.19;4877518;29;20513;-82
2020/12/22 08:58:54;;;;;;;0.20;0.20;;;;;;;-0.23;100.00;99460.03;4878721;29;20044;-82
2020/12/22 09:01:58;;;;;;;0.20;0.20;;;;;;;-0.26;100.00;99464.38;4866966;29;20072;-81
2020/12/22 09:05:14;;;;;;;0.20;0.20;;;;;;;-0.29;100.00;99469.91;4878618;29;20039;-82
2020/12/22 09:08:17;;;;;;;0.30;0.30;;;;;;;-0.30;100.00;99477.34;4878899;29;20467;-81
2020/12/22 09:11:21;;;;;;;0.20;0.20;;;;;;;-0.30;100.00;99468.34;4878189;29;20083;-81
2020/12/22 09:14:24;;;;;;;0.50;0.50;;;;;;;-0.30;100.00;99466.41;4878088;29;20052;-82
2020/12/22 09:17:32;;;;;;;0.17;0.17;;;;;;;-0.27;100.00;99476.53;4878335;29;20068;-83
2020/12/22 09:20:35;;;;;;;0.20;0.20;;;;;;;-0.22;100.00;99487.00;4878257;29;20040;-82
2020/12/22 09:23:45;;;;;;;0.20;0.20;;;;;;;-0.19;100.00;99483.44;4878406;29;20136;-84
2020/12/22 09:26:55;;;;;;;0.17;0.17;;;;;;;-0.17;100.00;99480.28;4878586;29;20044;-79
2020/12/22 09:29:59;;;;;;;0.20;0.20;;;;;;;-0.16;100.00;99487.31;4866855;29;20093;-82
2020/12/22 09:33:02;;;;;;;0.22;0.22;;;;;;;-0.12;100.00;99482.56;4878277;29;20188;-82
2020/12/22 09:36:09;;;;;;;0.20;0.20;;;;;;;-0.10;100.00;99486.44;4866646;29;20047;-83
2020/12/22 09:39:12;;;;;;;0.20;0.20;;;;;;;-0.10;100.00;99491.13;4881829;29;20040;-81
2020/12/22 09:42:15;;;;;;;0.17;0.17;;;;;;;-0.12;100.00;99488.81;4881727;29;20055;-82
2020/12/22 09:45:18;;;;;;;0.30;0.30;;;;;;;-0.12;100.00;99497.03;4881487;29;20059;-82
2020/12/22 09:48:21;;;;;;;0.30;0.30;;;;;;;-0.07;100.00;99496.56;4881366;29;20097;-82
2020/12/22 09:51:24;;;;;;;0.10;0.10;;;;;;;-0.06;100.00;99513.75;4881407;29;20462;-83
2020/12/22 09:54:27;;;;;;;0.20;0.20;;;;;;;-0.06;100.00;99506.31;4881995;29;20044;-82
2020/12/22 09:57:32;;;;;;;0.10;0.10;;;;;;;-0.02;100.00;99509.78;4880946;29;20051;-81
2020/12/22 10:00:35;;;;;;;0.17;0.17;;;;;;;0.03;100.00;99522.22;4869572;29;20092;-81
2020/12/22 10:03:37;;;;;;;0.30;0.30;;;;;;;0.10;100.00;99530.34;4881028;29;20096;-82
2020/12/22 10:06:40;;;;;;;0.22;0.22;;;;;;;0.15;100.00;99537.31;4881152;29;20055;-82
2020/12/22 10:09:43;;;;;;;0.25;0.25;;;;;;;0.16;100.00;99555.28;4881022;29;20057;-81
2020/12/22 10:12:46;;;;;;;0.32;0.32;;;;;;;0.17;100.00;99562.31;4881308;29;20466;-81
2020/12/22 10:15:49;;;;;;;0.20;0.20;;;;;;;0.22;100.00;99557.16;4880798;29;20422;-78
2020/12/22 10:18:52;;;;;;;0.30;0.30;;;;;;;0.29;100.00;99559.00;4869386;29;20060;-84
2020/12/22 10:21:55;;;;;;;0.10;0.10;;;;;;;0.37;100.00;99563.22;4880415;29;20140;-82
2020/12/22 10:24:58;;;;;;;0.20;0.20;;;;;;;0.42;100.00;99562.72;4880378;29;20569;-81
2020/12/22 10:28:01;;;;;;;0.20;0.20;;;;;;;0.51;100.00;99568.47;4868764;29;20047;-82
2020/12/22 10:31:05;;;;;;;0.40;0.40;;;;;;;0.60;100.00;99565.97;4880388;29;20101;-81
2020/12/22 10:34:09;;;;;;;0.30;0.30;;;;;;;0.68;100.00;99556.44;4874101;29;20079;-81
2020/12/22 10:37:12;;;;;;;0.20;0.20;;;;;;;0.78;100.00;99566.44;4895296;29;20075;-81
2020/12/22 10:40:15;;;;;;;0.20;0.20;;;;;;;0.85;100.00;99571.03;4899005;29;20051;-81
2020/12/22 10:43:18;;;;;;;0.20;0.20;;;;;;;0.89;100.00;99578.00;4899269;29;20406;-81
2020/12/22 10:46:21;;;;;;;0.10;0.10;;;;;;;0.94;100.00;99580.28;4899333;29;20055;-82
2020/12/22 10:49:24;;;;;;;0.10;0.10;;;;;;;1.03;100.00;99598.94;4898426;29;20043;-81
2020/12/22 10:52:27;;;;;;;0.20;0.20;;;;;;;1.12;100.00;99607.41;4898761;29;20139;-81
2020/12/22 10:55:30;;;;;;;0.20;0.20;;;;;;;1.24;100.00;99615.81;4898596;29;20091;-82
2020/12/22 10:58:32;;;;;;;0.20;0.20;;;;;;;1.40;100.00;99607.69;4898747;29;20056;-81
2020/12/22 11:01:39;;;;;;;0.20;0.20;;;;;;;1.56;100.00;99608.97;4898931;29;20047;-81
2020/12/22 11:04:43;;;;;;;0.17;0.17;;;;;;;1.67;100.00;99609.56;4898746;29;20512;-82
2020/12/22 11:07:51;;;;;;;0.20;0.20;;;;;;;1.78;100.00;99610.09;4898948;29;20445;-83
2020/12/22 11:10:54;;;;;;;0.10;0.10;;;;;;;1.87;100.00;99596.59;4898621;29;20062;-78
2020/12/22 11:13:57;;;;;;;0.10;0.10;;;;;;;1.93;100.00;99589.41;4898579;29;20055;-79
2020/12/22 11:17:00;;;;;;;0.10;0.10;;;;;;;2.00;100.00;99590.03;4898633;29;20107;-80
2020/12/22 11:20:03;;;;;;;0.10;0.10;;;;;;;2.10;100.00;99582.78;4898463;29;20131;-79
2020/12/22 11:23:06;;;;;;;0.10;0.10;;;;;;;2.20;100.00;99551.56;4898591;29;20074;-78
2020/12/22 11:26:10;;;;;;;0.10;0.10;;;;;;;2.28;100.00;99553.72;4898068;29;20409;-78
2020/12/22 11:29:13;;;;;;;0.10;0.10;;;;;;;2.37;100.00;99558.63;4886132;29;20079;-77
2020/12/22 11:32:15;;;;;;;0.10;0.10;;;;;;;2.43;100.00;99562.41;4897929;29;20096;-77
2020/12/22 11:35:19;;;;;;;0.10;0.10;;;;;;;2.52;100.00;99570.84;4861238;29;20068;-78
2020/12/22 11:38:22;;;;;;;0.10;0.10;;;;;;;2.59;100.00;99581.66;4860963;29;20406;-79
2020/12/22 11:41:25;;;;;;;0.22;0.22;;;;;;;2.67;100.00;99605.03;4860818;29;20044;-80
2020/12/22 11:44:28;;;;;;;0.10;0.10;;;;;;;2.75;100.00;99617.41;4861210;29;20044;-80
2020/12/22 11:47:31;;;;;;;0.20;0.20;;;;;;;2.84;100.00;99625.84;4860763;29;20089;-78
2020/12/22 11:50:33;;;;;;;0.10;0.10;;;;;;;2.91;100.00;99631.19;4860629;29;20117;-80
2020/12/22 11:53:36;;;;;;;0.10;0.10;;;;;;;2.99;100.00;99627.03;4860756;29;20148;-79
2020/12/22 11:56:39;;;;;;;0.28;0.28;;;;;;;3.06;100.00;99626.88;4860192;29;20121;-79
2020/12/22 11:59:41;;;;;;;0.10;0.10;;;;;;;3.18;100.00;99632.91;4860596;29;20152;-79
2020/12/22 12:02:44;;;;;;;0.10;0.10;;;;;;;3.27;100.00;99624.81;4859768;29;20045;-80
2020/12/22 12:05:47;;;;;;;0.10;0.10;;;;;;;3.36;100.00;99622.19;4859419;29;20052;-80
2020/12/22 12:08:52;;;;;;;0.25;0.25;;;;;;;3.41;100.00;99613.44;4859753;29;20141;-81
2020/12/22 12:11:55;;;;;;;0.10;0.10;;;;;;;3.44;100.00;99612.56;4859874;29;20467;-80
2020/12/22 12:14:58;;;;;;;0.10;0.10;;;;;;;3.47;100.00;99623.47;4859786;29;20059;-80
2020/12/22 12:18:02;;;;;;;0.15;0.15;;;;;;;3.48;100.00;99607.75;4859809;29;20056;-79
2020/12/22 12:21:07;;;;;;;0.52;0.52;;;;;;;3.48;100.00;99596.72;4860395;29;20096;-79
2020/12/22 12:24:09;;;;;;;2.13;0.80;;;;;;;3.52;100.00;99589.16;4860053;29;20068;-80
2020/12/22 12:27:13;;;;;;;0.30;0.20;;;;;;;3.52;100.00;99597.41;4860128;29;20048;-80
2020/12/22 12:30:16;;;;;;;0.22;0.22;;;;;;;3.55;100.00;99613.06;4859627;29;20052;-80
2020/12/22 12:33:19;;;;;;;0.15;0.10;;;;;;;3.56;100.00;99598.84;4866526;29;20048;-79
2020/12/22 12:36:22;;;;;;;1.08;0.43;;;;;;;3.59;100.00;99584.25;4878794;29;20052;-79
2020/12/22 12:39:24;;;;;;;0.10;0.10;;;;;;;3.63;100.00;99581.38;4878556;29;20108;-78
2020/12/22 12:42:27;;;;;;;0.10;0.10;;;;;;;3.65;100.00;99576.22;4878152;29;20048;-80
2020/12/22 12:45:30;;;;;;;0.10;0.10;;;;;;;3.69;100.00;99568.63;4878495;29;20051;-80
2020/12/22 12:48:40;;;;;;;0.10;0.10;;;;;;;3.72;100.00;99570.50;4878432;29;20088;-79
2020/12/22 12:51:44;;;;;;;0.68;0.47;;;;;;;3.71;100.00;99560.69;4877991;29;20521;-78
2020/12/22 12:54:47;;;;;;;0.10;0.10;;;;;;;3.69;100.00;99552.88;4878537;29;20056;-80
2020/12/22 12:57:50;;;;;;;0.38;0.38;;;;;;;3.69;100.00;99535.56;4878419;29;20097;-80
2020/12/22 13:00:52;;;;;;;0.10;0.10;;;;;;;3.70;100.00;99529.63;4878256;29;20109;-80
2020/12/22 13:03:55;;;;;;;0.10;0.10;;;;;;;3.72;100.00;99529.22;4878401;29;20469;-80
2020/12/22 13:06:58;;;;;;;0.43;0.43;;;;;;;3.73;100.00;99537.03;4878409;29;20051;-79
2020/12/22 13:10:01;;;;;;;0.17;0.17;;;;;;;3.73;100.00;99531.50;4878531;29;20153;-79
2020/12/22 13:13:04;;;;;;;0.10;0.10;;;;;;;3.77;100.00;99532.19;4881347;29;20048;-79
2020/12/22 13:16:11;;;;;;;0.17;0.17;;;;;;;3.77;100.00;99520.38;4882143;29;20426;-79
2020/12/22 13:19:16;;;;;;;0.10;0.00;;;;;;;3.77;100.00;99514.88;4882229;29;20056;-80
2020/12/22 13:22:19;;;;;;;0.10;0.10;;;;;;;3.75;100.00;99528.31;4881960;29;20137;-79
2020/12/22 13:25:21;;;;;;;0.08;0.00;;;;;;;3.74;100.00;99543.31;4881947;29;20590;-79
2020/12/22 13:28:24;;;;;;;0.10;0.10;;;;;;;3.72;100.00;99556.75;4881891;29;20048;-79
2020/12/22 13:31:27;;;;;;;1.48;0.28;;;;;;;3.74;100.00;99559.81;4881772;29;20105;-80
2020/12/22 13:34:30;;;;;;;0.10;0.10;;;;;;;3.77;100.00;99554.22;4881546;29;20089;-78
2020/12/22 13:37:33;;;;;;;0.10;0.10;;;;;;;3.80;100.00;99541.56;4881090;29;20056;-79
2020/12/22 13:40:36;;;;;;;0.52;0.50;;;;;;;3.84;100.00;99534.72;4881832;29;20120;-79
2020/12/22 13:43:39;;;;;;;0.73;0.55;;;;;;;3.83;100.00;99530.41;4881335;29;20064;-79
2020/12/22 13:46:42;;;;;;;0.38;0.38;;;;;;;3.87;100.00;99524.06;4881207;29;20048;-79
2020/12/22 13:49:45;;;;;;;0.40;0.30;;;;;;;3.89;100.00;99527.13;4881614;29;20409;-79
2020/12/22 13:52:48;;;;;;;0.10;0.05;;;;;;;3.93;100.00;99523.06;4881506;29;20072;-80
2020/12/22 13:55:51;;;;;;;0.10;0.10;;;;;;;3.96;100.00;99522.19;4880860;29;20104;-80
2020/12/22 13:58:54;;;;;;;0.35;0.35;;;;;;;3.99;100.00;99515.03;4881391;29;20052;-77
2020/12/22 14:01:57;;;;;;;2.13;0.63;;;;;;;4.01;100.00;99496.06;4881234;29;20128;-78
2020/12/22 14:05:00;;;;;;;0.10;0.10;;;;;;;4.01;100.00;99491.34;4881192;29;20503;-78
2020/12/22 14:08:03;;;;;;;0.10;0.00;;;;;;;3.96;100.00;99474.59;4881170;29;20124;-77
2020/12/22 14:11:06;;;;;;;0.65;0.43;;;;;;;3.95;100.00;99497.81;4881137;29;20286;-78
2020/12/22 14:14:09;;;;;;;0.10;0.05;;;;;;;3.99;100.00;99532.31;4881025;29;20080;-78
2020/12/22 14:17:12;;;;;;;0.10;0.00;;;;;;;4.01;100.00;99524.41;4881023;29;20552;-78
2020/12/22 14:20:15;;;;;;;0.52;0.32;;;;;;;4.04;100.00;99509.75;4881038;29;20047;-79
2020/12/22 14:23:18;;;;;;;0.10;0.10;;;;;;;4.04;100.00;99518.03;4880030;29;20096;-80